Cfl Racer — PJMV — position and weather

sailwx.info

Track history (hours):
 
Tides and Currents Weather Stations Pressure Air Temp Water Temp Dewpoint Dewpoint Depression Visibility Wind Speed Wind Dir Waves Ship Positions

Cfl Racer

Last reported at 2014-Oct-21 09:32 UTC. Time now 2014-Oct-21 10:35 UTC.
Position N 53°44' E 005°52'.

Length 83 m; draft 4.1 m.

Type: Cargo ship. MMSI: 306762000.

Date/timePositionNaut miles runAvg speedWind from/ knotsBaromVisibWave heightAir tempDewpointWater temp
2014-Oct-21 09:32N 53°44' E 005°52'61 8.7
2014-Oct-21 02:33N 54°00' E 007°32'1010.3
2014-Oct-21 01:33N 54°01' E 007°50'1110.6
2014-Oct-21 00:34N 54°01' E 008°08'1111.1
2014-Oct-20 23:34N 53°59' E 008°26'1010.0
2014-Oct-20 22:33N 53°55' E 008°41'8 8.3
2014-Oct-20 21:33N 53°51' E 008°54'8 8.2
2014-Oct-20 20:33N 53°53' E 009°07'2 1.7
2014-Oct-20 19:33N 53°54' E 009°09'1 1.1
2014-Oct-20 18:32N 53°55' E 009°11'0 0.0
2014-Oct-20 17:30N 53°55' E 009°11'5 4.1
2014-Oct-20 16:23N 53°58' E 009°16'17 6.1
2014-Oct-20 13:32N 54°12' E 009°34'6 4.6
2014-Oct-20 12:14N 54°17' E 009°39'4 6.3
2014-Oct-20 11:33N 54°20' E 009°44'7 7.1
2014-Oct-20 10:34N 54°20' E 009°56'5 5.1
2014-Oct-20 09:33N 54°22' E 010°05'2 2.3
2014-Oct-20 08:33N 54°22' E 010°09'3 3.1
2014-Oct-20 07:34N 54°24' E 010°12'11 9.7
2014-Oct-20 06:28N 54°32' E 010°25'6114.2
2014-Oct-20 02:09N 54°28' E 012°10'1830.0
2014-Oct-20 01:33N 54°29' E 011°39'9 9.2
2014-Oct-20 00:34N 54°27' E 011°55'10 8.8
2014-Oct-19 23:25N 54°30' E 012°11'20210.0
2014-Oct-19 03:19N 54°57' E 017°57'1010.4
2014-Oct-19 02:23N 54°58' E 018°14'910.9
2014-Oct-19 01:34N 54°58' E 018°29'1010.1
2014-Oct-19 00:33N 54°53' E 018°45'1110.6
2014-Oct-18 23:34N 54°46' E 018°58'1111.0
2014-Oct-18 22:34N 54°35' E 018°54'1111.1
2014-Oct-18 21:34N 54°27' E 018°41'6 5.5
2014-Oct-18 20:33N 54°22' E 018°40'1 0.8
2014-Oct-18 19:31N 54°22' E 018°39'0 0.0
2014-Oct-18 18:31N 54°22' E 018°39'0 0.0
2014-Oct-18 17:31N 54°22' E 018°39'0 0.0
2014-Oct-18 16:31N 54°22' E 018°39'0 0.0
2014-Oct-18 15:31N 54°22' E 018°39'0 0.0
2014-Oct-18 14:28N 54°22' E 018°39'0 0.0
2014-Oct-18 13:25N 54°22' E 018°39'0 0.0
2014-Oct-18 12:28N 54°22' E 018°39'0 0.0
2014-Oct-18 11:31N 54°22' E 018°39'0 0.0
2014-Oct-18 10:31N 54°22' E 018°39'0 0.0
2014-Oct-18 09:31N 54°22' E 018°39'0 0.0
2014-Oct-18 08:31N 54°22' E 018°39'0 0.0
2014-Oct-18 07:28N 54°22' E 018°39'0 0.0
2014-Oct-18 06:28N 54°22' E 018°39'0 0.0
2014-Oct-18 05:31N 54°22' E 018°39'0 0.0
2014-Oct-18 04:31N 54°22' E 018°39'0 0.0
2014-Oct-18 03:31N 54°22' E 018°39'0 0.0
2014-Oct-18 02:31N 54°22' E 018°39'0 0.0
2014-Oct-18 01:31N 54°22' E 018°39'0 0.0
2014-Oct-18 00:28N 54°22' E 018°39'0 0.0
2014-Oct-17 23:31N 54°22' E 018°39'0 0.0
2014-Oct-17 22:31N 54°22' E 018°39'0 0.0
2014-Oct-17 21:31N 54°22' E 018°39'0 0.0
2014-Oct-17 20:31N 54°22' E 018°39'0 0.0
2014-Oct-17 19:31N 54°22' E 018°39'0 0.0
2014-Oct-17 18:31N 54°22' E 018°39'0 0.0
2014-Oct-17 17:31N 54°22' E 018°39'0 0.0
2014-Oct-17 16:31N 54°22' E 018°39'0 0.0
2014-Oct-17 15:31N 54°22' E 018°39'0 0.0
2014-Oct-17 14:31N 54°22' E 018°39'0 0.0
2014-Oct-17 13:31N 54°22' E 018°39'0 0.0
2014-Oct-17 12:31N 54°22' E 018°39'0 0.0
2014-Oct-17 11:31N 54°22' E 018°39'0 0.0
2014-Oct-17 10:31N 54°22' E 018°39'0 0.0
2014-Oct-17 09:31N 54°22' E 018°39'0 0.0
2014-Oct-17 08:31N 54°22' E 018°39'0 0.0
2014-Oct-17 07:31N 54°22' E 018°39'0 0.0
2014-Oct-17 06:31N 54°22' E 018°39'0 0.0
2014-Oct-17 05:31N 54°22' E 018°39'0 0.0
2014-Oct-17 04:31N 54°22' E 018°39'0 0.0
2014-Oct-17 03:31N 54°22' E 018°39'0 0.0
2014-Oct-17 02:31N 54°22' E 018°39'0 0.0
2014-Oct-17 01:31N 54°22' E 018°39'0 0.0
2014-Oct-17 00:31N 54°22' E 018°39'0 0.0
2014-Oct-16 23:31N 54°22' E 018°39'0 0.0
2014-Oct-16 22:31N 54°22' E 018°39'0 0.0
2014-Oct-16 21:31N 54°22' E 018°39'0 0.0
2014-Oct-16 20:31N 54°22' E 018°39'0 0.0
2014-Oct-16 19:28N 54°22' E 018°39'0 0.0
2014-Oct-16 18:22N 54°22' E 018°39'0 0.0
2014-Oct-16 17:31N 54°22' E 018°39'0 0.0
2014-Oct-16 16:31N 54°22' E 018°39'0 0.0
2014-Oct-16 15:31N 54°22' E 018°39'0 0.0
2014-Oct-16 14:31N 54°22' E 018°39'0 0.0
2014-Oct-16 13:31N 54°22' E 018°39'0 0.0
2014-Oct-16 12:31N 54°22' E 018°39'0 0.0
2014-Oct-16 11:28N 54°22' E 018°39'0 0.0
2014-Oct-16 10:31N 54°22' E 018°39'0 0.0
2014-Oct-16 09:33N 54°22' E 018°39'1 0.7
2014-Oct-16 08:34N 54°23' E 018°40'6 5.7
2014-Oct-16 07:34N 54°28' E 018°42'1010.0
2014-Oct-16 06:34N 54°36' E 018°53'1010.4
2014-Oct-16 05:33N 54°46' E 018°58'1211.7
2014-Oct-16 04:33N 54°54' E 018°43'1110.8
2014-Oct-16 03:34N 54°59' E 018°26'1111.3
2014-Oct-16 02:33N 54°57' E 018°07'1411.2
2014-Oct-16 01:18N 54°54' E 017°43'10510.7
2014-Oct-15 15:27N 54°14' E 014°55'1011.1
2014-Oct-15 14:33N 54°09' E 014°41'1111.3
2014-Oct-15 13:33N 54°02' E 014°25'6 5.6
2014-Oct-15 12:31N 53°58' E 014°18'0 0.0
2014-Oct-15 11:31N 53°58' E 014°18'0 0.0
2014-Oct-15 10:32N 53°58' E 014°18'0 0.0
2014-Oct-15 09:31N 53°58' E 014°18'0 0.0
2014-Oct-15 08:31N 53°58' E 014°18'0 0.0
2014-Oct-15 07:31N 53°58' E 014°18'0 0.0
2014-Oct-15 06:31N 53°58' E 014°18'0 0.0
2014-Oct-15 05:31N 53°58' E 014°18'0 0.0
2014-Oct-15 04:31N 53°58' E 014°18'0 0.0
2014-Oct-15 03:31N 53°58' E 014°18'0 0.0
2014-Oct-15 02:31N 53°58' E 014°18'0 0.0
2014-Oct-15 01:31N 53°58' E 014°18'2 1.9
2014-Oct-15 00:33N 53°57' E 014°16'7 6.9
2014-Oct-14 23:33N 53°50' E 014°18'1111.0
2014-Oct-14 22:33N 53°41' E 014°30'1110.9
2014-Oct-14 21:33N 53°32' E 014°38'8 7.6
2014-Oct-14 20:33N 53°24' E 014°37'0 0.0
2014-Oct-14 19:33N 53°24' E 014°37'0 0.0
2014-Oct-14 18:33N 53°24' E 014°37'0 0.0
2014-Oct-14 17:33N 53°24' E 014°37'0 0.0
2014-Oct-14 16:33N 53°24' E 014°37'0 0.0
2014-Oct-14 15:33N 53°24' E 014°37'0 0.0
2014-Oct-14 14:33N 53°24' E 014°37'0 0.0
2014-Oct-14 13:33N 53°24' E 014°37'0 0.0
2014-Oct-14 12:33N 53°24' E 014°37'0 0.0
2014-Oct-14 11:33N 53°24' E 014°37'0 0.0
2014-Oct-14 10:33N 53°24' E 014°37'0 0.0
2014-Oct-14 09:33N 53°24' E 014°37'0 0.0
2014-Oct-14 08:33N 53°24' E 014°37'0 0.0
2014-Oct-14 07:33N 53°24' E 014°37'0 0.0
2014-Oct-14 06:33N 53°24' E 014°37'0 0.0
2014-Oct-14 05:33N 53°24' E 014°37'0 0.0
2014-Oct-14 04:33N 53°24' E 014°37'0 0.0
2014-Oct-14 03:33N 53°24' E 014°37'0 0.0
2014-Oct-14 02:33N 53°24' E 014°37'0 0.0
2014-Oct-14 01:33N 53°24' E 014°37'0 0.0
2014-Oct-14 00:33N 53°24' E 014°37'0 0.0
2014-Oct-13 23:33N 53°24' E 014°37'0 0.0
2014-Oct-13 22:33N 53°24' E 014°37'0 0.0
2014-Oct-13 21:33N 53°24' E 014°37'0 0.0
2014-Oct-13 20:33N 53°24' E 014°37'0 0.0
2014-Oct-13 19:33N 53°24' E 014°37'0 0.0
2014-Oct-13 18:33N 53°24' E 014°37'0 0.0
2014-Oct-13 17:33N 53°24' E 014°37'0 0.0
2014-Oct-13 16:33N 53°24' E 014°37'0 0.0
2014-Oct-13 15:33N 53°24' E 014°37'0 0.0
2014-Oct-13 14:33N 53°24' E 014°37'0 0.0
2014-Oct-13 13:33N 53°24' E 014°37'0 0.0
2014-Oct-13 12:33N 53°24' E 014°37'0 0.0
2014-Oct-13 11:33N 53°24' E 014°37'0 0.0
2014-Oct-13 10:33N 53°24' E 014°37'0 0.0
2014-Oct-13 09:33N 53°24' E 014°37'0 0.0
2014-Oct-13 08:33N 53°24' E 014°37'0 0.0
2014-Oct-13 07:33N 53°24' E 014°37'6 6.3
2014-Oct-13 06:33N 53°31' E 014°38'9 9.3
2014-Oct-13 05:33N 53°39' E 014°33'1010.3
2014-Oct-13 04:33N 53°47' E 014°22'8 7.5
2014-Oct-13 03:33N 53°54' E 014°15'5 4.3
2014-Oct-13 02:28N 53°59' E 014°14'0 0.0
2014-Oct-13 01:31N 53°59' E 014°14'0 0.0
2014-Oct-13 00:31N 53°59' E 014°14'0 0.0
2014-Oct-12 23:31N 53°59' E 014°15'7 7.1
2014-Oct-12 22:33N 54°05' E 014°10'1110.8
2014-Oct-12 21:33N 54°15' E 014°02'62 8.8
2014-Oct-12 14:33N 54°32' E 012°21'1010.6
2014-Oct-12 13:34N 54°25' E 012°09'1111.3
2014-Oct-12 12:33N 54°24' E 011°49'4310.8
2014-Oct-12 08:33N 54°33' E 010°36'1111.0
2014-Oct-12 07:33N 54°29' E 010°19'9 9.5
2014-Oct-12 06:33N 54°22' E 010°09'3 2.7
2014-Oct-12 05:33N 54°22' E 010°04'6 6.1
2014-Oct-12 04:33N 54°21' E 009°53'7 7.3
2014-Oct-12 03:33N 54°18' E 009°42'4 3.7
2014-Oct-12 02:32N 54°16' E 009°37'8 7.6
2014-Oct-12 01:30N 54°10' E 009°27'10 6.9
2014-Oct-12 00:05N 54°02' E 009°18'4 8.1
2014-Oct-11 23:33N 53°58' E 009°16'6 5.6
2014-Oct-11 22:33N 53°54' E 009°09'4 4.4
2014-Oct-11 21:33N 53°52' E 009°03'7 7.5
2014-Oct-11 20:33N 53°50' E 008°50'7 6.5
2014-Oct-11 19:34N 53°54' E 008°41'7 7.0
2014-Oct-11 18:34N 53°58' E 008°32'9 8.9
2014-Oct-11 17:34N 53°59' E 008°17'10 9.7
2014-Oct-11 16:33N 53°59' E 008°00'7610.9
2014-Oct-11 09:33N 53°39' E 005°55'  
Track history (hours):
 
Tides and Currents Weather Stations Pressure Air Temp Water Temp Dewpoint Dewpoint Depression Visibility Wind Speed Wind Dir Waves Ship Positions

Cfl Racer

Last reported at 2014-Oct-21 09:32 UTC. Time now 2014-Oct-21 10:35 UTC.
Position N 53°44' E 005°52'.

Length 83 m; draft 4.1 m.

Type: Cargo ship. MMSI: 306762000.

Date/timePositionNaut miles runAvg speedWind from/ knotsBaromVisibWave heightAir tempDewpointWater temp
2014-Oct-21 09:32N 53°44' E 005°52'61 8.7
2014-Oct-21 02:33N 54°00' E 007°32'1010.3
2014-Oct-21 01:33N 54°01' E 007°50'1110.6
2014-Oct-21 00:34N 54°01' E 008°08'1111.1
2014-Oct-20 23:34N 53°59' E 008°26'1010.0
2014-Oct-20 22:33N 53°55' E 008°41'8 8.3
2014-Oct-20 21:33N 53°51' E 008°54'8 8.2
2014-Oct-20 20:33N 53°53' E 009°07'2 1.7
2014-Oct-20 19:33N 53°54' E 009°09'1 1.1
2014-Oct-20 18:32N 53°55' E 009°11'0 0.0
2014-Oct-20 17:30N 53°55' E 009°11'5 4.1
2014-Oct-20 16:23N 53°58' E 009°16'17 6.1
2014-Oct-20 13:32N 54°12' E 009°34'6 4.6
2014-Oct-20 12:14N 54°17' E 009°39'4 6.3
2014-Oct-20 11:33N 54°20' E 009°44'7 7.1
2014-Oct-20 10:34N 54°20' E 009°56'5 5.1
2014-Oct-20 09:33N 54°22' E 010°05'2 2.3
2014-Oct-20 08:33N 54°22' E 010°09'3 3.1
2014-Oct-20 07:34N 54°24' E 010°12'11 9.7
2014-Oct-20 06:28N 54°32' E 010°25'6114.2
2014-Oct-20 02:09N 54°28' E 012°10'1830.0
2014-Oct-20 01:33N 54°29' E 011°39'9 9.2
2014-Oct-20 00:34N 54°27' E 011°55'10 8.8
2014-Oct-19 23:25N 54°30' E 012°11'20210.0
2014-Oct-19 03:19N 54°57' E 017°57'1010.4
2014-Oct-19 02:23N 54°58' E 018°14'910.9
2014-Oct-19 01:34N 54°58' E 018°29'1010.1
2014-Oct-19 00:33N 54°53' E 018°45'1110.6
2014-Oct-18 23:34N 54°46' E 018°58'1111.0
2014-Oct-18 22:34N 54°35' E 018°54'1111.1
2014-Oct-18 21:34N 54°27' E 018°41'6 5.5
2014-Oct-18 20:33N 54°22' E 018°40'1 0.8
2014-Oct-18 19:31N 54°22' E 018°39'0 0.0
2014-Oct-18 18:31N 54°22' E 018°39'0 0.0
2014-Oct-18 17:31N 54°22' E 018°39'0 0.0
2014-Oct-18 16:31N 54°22' E 018°39'0 0.0
2014-Oct-18 15:31N 54°22' E 018°39'0 0.0
2014-Oct-18 14:28N 54°22' E 018°39'0 0.0
2014-Oct-18 13:25N 54°22' E 018°39'0 0.0
2014-Oct-18 12:28N 54°22' E 018°39'0 0.0
2014-Oct-18 11:31N 54°22' E 018°39'0 0.0
2014-Oct-18 10:31N 54°22' E 018°39'0 0.0
2014-Oct-18 09:31N 54°22' E 018°39'0 0.0
2014-Oct-18 08:31N 54°22' E 018°39'0 0.0
2014-Oct-18 07:28N 54°22' E 018°39'0 0.0
2014-Oct-18 06:28N 54°22' E 018°39'0 0.0
2014-Oct-18 05:31N 54°22' E 018°39'0 0.0
2014-Oct-18 04:31N 54°22' E 018°39'0 0.0
2014-Oct-18 03:31N 54°22' E 018°39'0 0.0
2014-Oct-18 02:31N 54°22' E 018°39'0 0.0
2014-Oct-18 01:31N 54°22' E 018°39'0 0.0
2014-Oct-18 00:28N 54°22' E 018°39'0 0.0
2014-Oct-17 23:31N 54°22' E 018°39'0 0.0
2014-Oct-17 22:31N 54°22' E 018°39'0 0.0
2014-Oct-17 21:31N 54°22' E 018°39'0 0.0
2014-Oct-17 20:31N 54°22' E 018°39'0 0.0
2014-Oct-17 19:31N 54°22' E 018°39'0 0.0
2014-Oct-17 18:31N 54°22' E 018°39'0 0.0
2014-Oct-17 17:31N 54°22' E 018°39'0 0.0
2014-Oct-17 16:31N 54°22' E 018°39'0 0.0
2014-Oct-17 15:31N 54°22' E 018°39'0 0.0
2014-Oct-17 14:31N 54°22' E 018°39'0 0.0
2014-Oct-17 13:31N 54°22' E 018°39'0 0.0
2014-Oct-17 12:31N 54°22' E 018°39'0 0.0
2014-Oct-17 11:31N 54°22' E 018°39'0 0.0
2014-Oct-17 10:31N 54°22' E 018°39'0 0.0
2014-Oct-17 09:31N 54°22' E 018°39'0 0.0
2014-Oct-17 08:31N 54°22' E 018°39'0 0.0
2014-Oct-17 07:31N 54°22' E 018°39'0 0.0
2014-Oct-17 06:31N 54°22' E 018°39'0 0.0
2014-Oct-17 05:31N 54°22' E 018°39'0 0.0
2014-Oct-17 04:31N 54°22' E 018°39'0 0.0
2014-Oct-17 03:31N 54°22' E 018°39'0 0.0
2014-Oct-17 02:31N 54°22' E 018°39'0 0.0
2014-Oct-17 01:31N 54°22' E 018°39'0 0.0
2014-Oct-17 00:31N 54°22' E 018°39'0 0.0
2014-Oct-16 23:31N 54°22' E 018°39'0 0.0
2014-Oct-16 22:31N 54°22' E 018°39'0 0.0
2014-Oct-16 21:31N 54°22' E 018°39'0 0.0
2014-Oct-16 20:31N 54°22' E 018°39'0 0.0
2014-Oct-16 19:28N 54°22' E 018°39'0 0.0
2014-Oct-16 18:22N 54°22' E 018°39'0 0.0
2014-Oct-16 17:31N 54°22' E 018°39'0 0.0
2014-Oct-16 16:31N 54°22' E 018°39'0 0.0
2014-Oct-16 15:31N 54°22' E 018°39'0 0.0
2014-Oct-16 14:31N 54°22' E 018°39'0 0.0
2014-Oct-16 13:31N 54°22' E 018°39'0 0.0
2014-Oct-16 12:31N 54°22' E 018°39'0 0.0
2014-Oct-16 11:28N 54°22' E 018°39'0 0.0
2014-Oct-16 10:31N 54°22' E 018°39'0 0.0
2014-Oct-16 09:33N 54°22' E 018°39'1 0.7
2014-Oct-16 08:34N 54°23' E 018°40'6 5.7
2014-Oct-16 07:34N 54°28' E 018°42'1010.0
2014-Oct-16 06:34N 54°36' E 018°53'1010.4
2014-Oct-16 05:33N 54°46' E 018°58'1211.7
2014-Oct-16 04:33N 54°54' E 018°43'1110.8
2014-Oct-16 03:34N 54°59' E 018°26'1111.3
2014-Oct-16 02:33N 54°57' E 018°07'1411.2
2014-Oct-16 01:18N 54°54' E 017°43'10510.7
2014-Oct-15 15:27N 54°14' E 014°55'1011.1
2014-Oct-15 14:33N 54°09' E 014°41'1111.3
2014-Oct-15 13:33N 54°02' E 014°25'6 5.6
2014-Oct-15 12:31N 53°58' E 014°18'0 0.0
2014-Oct-15 11:31N 53°58' E 014°18'0 0.0
2014-Oct-15 10:32N 53°58' E 014°18'0 0.0
2014-Oct-15 09:31N 53°58' E 014°18'0 0.0
2014-Oct-15 08:31N 53°58' E 014°18'0 0.0
2014-Oct-15 07:31N 53°58' E 014°18'0 0.0
2014-Oct-15 06:31N 53°58' E 014°18'0 0.0
2014-Oct-15 05:31N 53°58' E 014°18'0 0.0
2014-Oct-15 04:31N 53°58' E 014°18'0 0.0
2014-Oct-15 03:31N 53°58' E 014°18'0 0.0
2014-Oct-15 02:31N 53°58' E 014°18'0 0.0
2014-Oct-15 01:31N 53°58' E 014°18'2 1.9
2014-Oct-15 00:33N 53°57' E 014°16'7 6.9
2014-Oct-14 23:33N 53°50' E 014°18'1111.0
2014-Oct-14 22:33N 53°41' E 014°30'1110.9
2014-Oct-14 21:33N 53°32' E 014°38'8 7.6
2014-Oct-14 20:33N 53°24' E 014°37'0 0.0
2014-Oct-14 19:33N 53°24' E 014°37'0 0.0
2014-Oct-14 18:33N 53°24' E 014°37'0 0.0
2014-Oct-14 17:33N 53°24' E 014°37'0 0.0
2014-Oct-14 16:33N 53°24' E 014°37'0 0.0
2014-Oct-14 15:33N 53°24' E 014°37'0 0.0
2014-Oct-14 14:33N 53°24' E 014°37'0 0.0
2014-Oct-14 13:33N 53°24' E 014°37'0 0.0
2014-Oct-14 12:33N 53°24' E 014°37'0 0.0
2014-Oct-14 11:33N 53°24' E 014°37'0 0.0
2014-Oct-14 10:33N 53°24' E 014°37'0 0.0
2014-Oct-14 09:33N 53°24' E 014°37'0 0.0
2014-Oct-14 08:33N 53°24' E 014°37'0 0.0
2014-Oct-14 07:33N 53°24' E 014°37'0 0.0
2014-Oct-14 06:33N 53°24' E 014°37'0 0.0
2014-Oct-14 05:33N 53°24' E 014°37'0 0.0
2014-Oct-14 04:33N 53°24' E 014°37'0 0.0
2014-Oct-14 03:33N 53°24' E 014°37'0 0.0
2014-Oct-14 02:33N 53°24' E 014°37'0 0.0
2014-Oct-14 01:33N 53°24' E 014°37'0 0.0
2014-Oct-14 00:33N 53°24' E 014°37'0 0.0
2014-Oct-13 23:33N 53°24' E 014°37'0 0.0
2014-Oct-13 22:33N 53°24' E 014°37'0 0.0
2014-Oct-13 21:33N 53°24' E 014°37'0 0.0
2014-Oct-13 20:33N 53°24' E 014°37'0 0.0
2014-Oct-13 19:33N 53°24' E 014°37'0 0.0
2014-Oct-13 18:33N 53°24' E 014°37'0 0.0
2014-Oct-13 17:33N 53°24' E 014°37'0 0.0
2014-Oct-13 16:33N 53°24' E 014°37'0 0.0
2014-Oct-13 15:33N 53°24' E 014°37'0 0.0
2014-Oct-13 14:33N 53°24' E 014°37'0 0.0
2014-Oct-13 13:33N 53°24' E 014°37'0 0.0
2014-Oct-13 12:33N 53°24' E 014°37'0 0.0
2014-Oct-13 11:33N 53°24' E 014°37'0 0.0
2014-Oct-13 10:33N 53°24' E 014°37'0 0.0
2014-Oct-13 09:33N 53°24' E 014°37'0 0.0
2014-Oct-13 08:33N 53°24' E 014°37'0 0.0
2014-Oct-13 07:33N 53°24' E 014°37'6 6.3
2014-Oct-13 06:33N 53°31' E 014°38'9 9.3
2014-Oct-13 05:33N 53°39' E 014°33'1010.3
2014-Oct-13 04:33N 53°47' E 014°22'8 7.5
2014-Oct-13 03:33N 53°54' E 014°15'5 4.3
2014-Oct-13 02:28N 53°59' E 014°14'0 0.0
2014-Oct-13 01:31N 53°59' E 014°14'0 0.0
2014-Oct-13 00:31N 53°59' E 014°14'0 0.0
2014-Oct-12 23:31N 53°59' E 014°15'7 7.1
2014-Oct-12 22:33N 54°05' E 014°10'1110.8
2014-Oct-12 21:33N 54°15' E 014°02'62 8.8
2014-Oct-12 14:33N 54°32' E 012°21'1010.6
2014-Oct-12 13:34N 54°25' E 012°09'1111.3
2014-Oct-12 12:33N 54°24' E 011°49'4310.8
2014-Oct-12 08:33N 54°33' E 010°36'1111.0
2014-Oct-12 07:33N 54°29' E 010°19'9 9.5
2014-Oct-12 06:33N 54°22' E 010°09'3 2.7
2014-Oct-12 05:33N 54°22' E 010°04'6 6.1
2014-Oct-12 04:33N 54°21' E 009°53'7 7.3
2014-Oct-12 03:33N 54°18' E 009°42'4 3.7
2014-Oct-12 02:32N 54°16' E 009°37'8 7.6
2014-Oct-12 01:30N 54°10' E 009°27'10 6.9
2014-Oct-12 00:05N 54°02' E 009°18'4 8.1
2014-Oct-11 23:33N 53°58' E 009°16'6 5.6
2014-Oct-11 22:33N 53°54' E 009°09'4 4.4
2014-Oct-11 21:33N 53°52' E 009°03'7 7.5
2014-Oct-11 20:33N 53°50' E 008°50'7 6.5
2014-Oct-11 19:34N 53°54' E 008°41'7 7.0
2014-Oct-11 18:34N 53°58' E 008°32'9 8.9
2014-Oct-11 17:34N 53°59' E 008°17'10 9.7
2014-Oct-11 16:33N 53°59' E 008°00'7610.9
2014-Oct-11 09:33N 53°39' E 005°55'  

Dump ship's entire track history